Time;durP1;ratioP1;P1;durP2;ratioP2;P2;SDS_P1;SDS_P2;PMS_P1;PMS_P2;Temp;Humidity;BMP_temperature;BMP_pressure;BME280_temperature;BME280_humidity;BME280_pressure;Samples;Min_cycle;Max_cycle;Signal;HPM_P1;HPM_P2
2022/06/10 00:03:20;;;;;;;;;;;;;;;-145.66;100.00;59599.19;10419911;28;19921;-69
2022/06/10 00:08:23;;;;;;;;;;;;;;;-145.66;100.00;59599.19;10420196;28;20375;-69
2022/06/10 00:13:27;;;;;;;;;;;;;;;-145.66;100.00;59599.19;10419554;28;19920;-68
2022/06/10 00:18:30;;;;;;;;;;;;;;;-145.66;100.00;59599.19;10401185;28;19921;-69
2022/06/10 00:23:32;;;;;;;;;;;;;;;-145.66;100.00;59599.19;10420148;28;19925;-68
2022/06/10 00:28:34;;;;;;;;;;;;;;;-145.66;100.00;59599.19;10400935;28;19921;-68
2022/06/10 00:33:36;;;;;;;;;;;;;;;-145.66;100.00;59599.19;10400577;28;20296;-68
2022/06/10 00:38:39;;;;;;;;;;;;;;;-145.66;100.00;59599.19;10459868;28;19927;-68
2022/06/10 00:43:41;;;;;;;;;;;;;;;-145.66;100.00;59599.19;10408142;28;19921;-68
2022/06/10 00:48:47;;;;;;;;;;;;;;;-145.66;100.00;59599.19;10418102;28;19921;-68
2022/06/10 00:54:00;;;;;;;;;;;;;;;-145.66;100.00;59599.19;10417348;28;19929;-68
2022/06/10 00:59:13;;;;;;;;;;;;;;;-145.66;100.00;59599.19;10399611;28;19925;-68
2022/06/10 01:04:15;;;;;;;;;;;;;;;-145.66;100.00;59599.19;10417957;28;20379;-68
2022/06/10 01:09:17;;;;;;;;;;;;;;;-145.66;100.00;59599.19;10399499;28;20365;-68
2022/06/10 01:14:46;;;;;;;;;;;;;;;-145.66;100.00;59599.19;10457826;28;20368;-68
2022/06/10 01:20:08;;;;;;;;;;;;;;;-145.66;100.00;59599.19;10426077;28;20299;-68
2022/06/10 01:25:18;;;;;;;;;;;;;;;-145.66;100.00;59599.19;10439734;28;20291;-68
2022/06/10 01:30:39;;;;;;;;;;;;;;;-145.66;100.00;59599.19;10417314;28;20349;-68
2022/06/10 01:36:00;;;;;;;;;;;;;;;-145.66;100.00;59599.19;10416569;28;19927;-68
2022/06/10 01:41:11;;;;;;;;;;;;;;;-145.66;100.00;59599.19;10417387;28;19925;-68
2022/06/10 01:46:21;;;;;;;;;;;;;;;-145.66;100.00;59599.19;10416180;28;19925;-68
2022/06/10 01:51:30;;;;;;;;;;;;;;;-145.66;100.00;59599.19;10416114;28;20004;-69
2022/06/10 01:56:34;;;;;;;;;;;;;;;-145.66;100.00;59599.19;10399026;28;20272;-68
2022/06/10 02:01:41;;;;;;;;;;;;;;;-145.66;100.00;59599.19;10414486;28;19921;-68
2022/06/10 02:06:48;;;;;;;;;;;;;;;-145.66;100.00;59599.19;10438923;28;19925;-68
2022/06/10 02:11:52;;;;;;;;;;;;;;;-145.66;100.00;59599.19;10442261;28;20279;-69
2022/06/10 02:17:15;;;;;;;;;;;;;;;-145.66;100.00;59599.19;10436380;28;20359;-68
2022/06/10 02:22:23;;;;;;;;;;;;;;;-145.66;100.00;59599.19;10425338;28;19920;-68
2022/06/10 02:27:30;;;;;;;;;;;;;;;-145.66;100.00;59599.19;10405811;28;19921;-69
2022/06/10 02:32:34;;;;;;;;;;;;;;;-145.66;100.00;59599.19;10406011;28;19921;-68
2022/06/10 02:37:55;;;;;;;;;;;;;;;-145.66;100.00;59599.19;10405728;28;19927;-68
2022/06/10 02:43:03;;;;;;;;;;;;;;;-145.66;100.00;59599.19;10449618;28;19943;-69
2022/06/10 02:48:06;;;;;;;;;;;;;;;-145.66;100.00;59599.19;10433955;28;20265;-68
2022/06/10 02:53:08;;;;;;;;;;;;;;;-145.66;100.00;59599.19;10422033;28;19967;-68
2022/06/10 03:03:31;;;;;;;;;;;;;;;-145.66;100.00;59599.19;10453261;28;19921;-68
2022/06/10 03:08:33;;;;;;;;;;;;;;;-145.66;100.00;59599.19;10463096;28;19925;-68
2022/06/10 03:13:54;;;;;;;;;;;;;;;-145.66;100.00;59599.19;10462565;28;19920;-68
2022/06/10 03:19:14;;;;;;;;;;;;;;;-145.66;100.00;59599.19;10427200;28;19928;-69
2022/06/10 03:24:25;;;;;;;;;;;;;;;-145.66;100.00;59599.19;10403077;28;20376;-69
2022/06/10 03:29:30;;;;;;;;;;;;;;;-145.66;100.00;59599.19;10420467;28;20353;-68
2022/06/10 03:34:34;;;;;;;;;;;;;;;-145.66;100.00;59599.19;10420480;28;19921;-69
2022/06/10 03:39:36;;;;;;;;;;;;;;;-145.66;100.00;59599.19;10402692;28;20402;-69
2022/06/10 03:44:38;;;;;;;;;;;;;;;-145.66;100.00;59599.19;10418721;28;20303;-69
2022/06/10 03:49:43;;;;;;;;;;;;;;;-145.66;100.00;59599.19;10443909;28;19921;-69
2022/06/10 03:54:45;;;;;;;;;;;;;;;-145.66;100.00;59599.19;10443798;28;19924;-69
2022/06/10 03:59:47;;;;;;;;;;;;;;;-145.66;100.00;59599.19;10460328;28;19920;-69
2022/06/10 04:04:51;;;;;;;;;;;;;;;-145.66;100.00;59599.19;10460970;28;19928;-69
2022/06/10 04:09:53;;;;;;;;;;;;;;;-145.66;100.00;59599.19;10460736;28;19931;-69
2022/06/10 04:14:55;;;;;;;;;;;;;;;-145.66;100.00;59599.19;10426288;28;19921;-69
2022/06/10 04:20:00;;;;;;;;;;;;;;;-145.66;100.00;59599.19;10429872;28;19951;-69
2022/06/10 04:25:02;;;;;;;;;;;;;;;-145.66;100.00;59599.19;10459729;28;19927;-69
2022/06/10 04:30:05;;;;;;;;;;;;;;;-145.66;100.00;59599.19;10491330;28;19920;-69
2022/06/10 04:35:07;;;;;;;;;;;;;;;-145.66;100.00;59599.19;10483308;28;19927;-68
2022/06/10 04:40:10;;;;;;;;;;;;;;;-145.66;100.00;59599.19;10492724;28;20299;-67
2022/06/10 04:45:13;;;;;;;;;;;;;;;-145.66;100.00;59599.19;10500617;28;19920;-68
2022/06/10 04:50:17;;;;;;;;;;;;;;;-145.66;100.00;59599.19;10483075;28;19920;-69
2022/06/10 04:55:19;;;;;;;;;;;;;;;-145.66;100.00;59599.19;10499569;28;20252;-66
2022/06/10 05:00:42;;;;;;;;;;;;;;;-145.66;100.00;59599.19;10493925;28;20391;-66
2022/06/10 05:05:44;;;;;;;;;;;;;;;-145.66;100.00;59599.19;10464616;28;19927;-66
2022/06/10 05:10:47;;;;;;;;;;;;;;;-145.66;100.00;59599.19;10481636;28;20264;-65
2022/06/10 05:15:50;;;;;;;;;;;;;;;-145.66;100.00;59599.19;10499706;28;20003;-65
2022/06/10 05:20:52;;;;;;;;;;;;;;;-145.66;100.00;59599.19;10470012;28;19921;-65
2022/06/10 05:25:55;;;;;;;;;;;;;;;-145.66;100.00;59599.19;10439958;28;19920;-65
2022/06/10 05:30:57;;;;;;;;;;;;;;;-145.66;100.00;59599.19;10418037;28;19921;-65
2022/06/10 05:35:59;;;;;;;;;;;;;;;-145.66;100.00;59599.19;10415890;28;20361;-65
2022/06/10 05:42:04;;;;;;;;;;;;;;;-145.66;100.00;59599.19;10415803;28;20417;-65
2022/06/10 05:46:23;;;;;;;;;;;;;;;-145.66;100.00;59599.19;10414907;28;19925;-65
2022/06/10 05:51:26;;;;;;;;;;;;;;;-145.66;100.00;59599.19;10416167;28;19921;-65
2022/06/10 05:56:28;;;;;;;;;;;;;;;-145.66;100.00;59599.19;10415371;28;20383;-65
2022/06/10 06:01:30;;;;;;;;;;;;;;;-145.66;100.00;59599.19;10415880;28;19921;-65
2022/06/10 06:06:32;;;;;;;;;;;;;;;-145.66;100.00;59599.19;10381453;28;19921;-65
2022/06/10 06:11:35;;;;;;;;;;;;;;;-145.66;100.00;59599.19;10397636;28;20296;-65
2022/06/10 06:16:37;;;;;;;;;;;;;;;-145.66;100.00;59599.19;10397403;28;20376;-65
2022/06/10 06:21:39;;;;;;;;;;;;;;;-145.66;100.00;59599.19;10397401;28;20376;-65
2022/06/10 06:26:41;;;;;;;;;;;;;;;-145.66;100.00;59599.19;10414753;28;19921;-65
2022/06/10 06:31:44;;;;;;;;;;;;;;;-145.66;100.00;59599.19;10415302;28;19925;-65
2022/06/10 06:36:46;;;;;;;;;;;;;;;-145.66;100.00;59599.19;10415248;28;19928;-65
2022/06/10 06:41:48;;;;;;;;;;;;;;;-145.66;100.00;59599.19;10421995;23;20399;-69
2022/06/10 06:46:51;;;;;;;;;;;;;;;-145.66;100.00;59599.19;10414531;28;20284;-70
2022/06/10 06:51:54;;;;;;;;;;;;;;;-145.66;100.00;59599.19;10396859;28;20304;-69
2022/06/10 06:56:57;;;;;;;;;;;;;;;-145.66;100.00;59599.19;10399041;28;20355;-69
2022/06/10 07:01:59;;;;;;;;;;;;;;;-145.66;100.00;59599.19;10422296;28;19921;-69
2022/06/10 07:07:02;;;;;;;;;;;;;;;-145.66;100.00;59599.19;10422161;28;19921;-69
2022/06/10 07:12:04;;;;;;;;;;;;;;;-145.66;100.00;59599.19;10421917;28;19932;-70
2022/06/10 07:17:07;;;;;;;;;;;;;;;-145.66;100.00;59599.19;10421217;28;19921;-69
2022/06/10 07:22:09;;;;;;;;;;;;;;;-145.66;100.00;59599.19;10421754;28;19921;-69
2022/06/10 07:27:11;;;;;;;;;;;;;;;-145.66;100.00;59599.19;10403307;28;19928;-69
2022/06/10 07:32:13;;;;;;;;;;;;;;;-145.66;100.00;59599.19;10403635;28;19921;-69
2022/06/10 07:37:16;;;;;;;;;;;;;;;-145.66;100.00;59599.19;10402856;28;20279;-70
2022/06/10 07:42:18;;;;;;;;;;;;;;;-145.66;100.00;59599.19;10419938;28;20279;-70
2022/06/10 07:47:20;;;;;;;;;;;;;;;-145.66;100.00;59599.19;10420015;28;20253;-69
2022/06/10 07:52:25;;;;;;;;;;;;;;;-145.66;100.00;59599.19;10403016;28;19921;-70
2022/06/10 07:57:27;;;;;;;;;;;;;;;-145.66;100.00;59599.19;10403004;28;19928;-70
2022/06/10 08:02:29;;;;;;;;;;;;;;;-145.66;100.00;59599.19;10419998;28;19921;-70
2022/06/10 08:07:32;;;;;;;;;;;;;;;-145.66;100.00;59599.19;10419260;28;19925;-70
2022/06/10 08:12:34;;;;;;;;;;;;;;;-145.66;100.00;59599.19;10419607;28;19925;-70
2022/06/10 08:17:36;;;;;;;;;;;;;;;-145.66;100.00;59599.19;10418779;28;20376;-70
2022/06/10 08:22:39;;;;;;;;;;;;;;;-145.66;100.00;59599.19;10419235;28;19927;-70
2022/06/10 08:27:41;;;;;;;;;;;;;;;-145.66;100.00;59599.19;10418490;28;19944;-69
2022/06/10 08:32:44;;;;;;;;;;;;;;;-145.66;100.00;59599.19;10401596;28;19921;-70
2022/06/10 08:37:49;;;;;;;;;;;;;;;-145.66;100.00;59599.19;10418715;28;20271;-69
2022/06/10 08:42:51;;;;;;;;;;;;;;;-145.66;100.00;59599.19;10400797;28;19928;-70
2022/06/10 08:47:54;;;;;;;;;;;;;;;-145.66;100.00;59599.19;10400841;28;19921;-70
2022/06/10 08:52:56;;;;;;;;;;;;;;;-145.66;100.00;59599.19;10417489;28;19921;-70
2022/06/10 08:58:00;;;;;;;;;;;;;;;-145.66;100.00;59599.19;10417889;28;19921;-69
2022/06/10 09:03:10;;;;;;;;;;;;;;;-145.66;100.00;59599.19;10417632;28;19921;-69
2022/06/10 09:08:14;;;;;;;;;;;;;;;-145.66;100.00;59599.19;10399992;28;19947;-69
2022/06/10 09:13:27;;;;;;;;;;;;;;;-145.66;100.00;59599.19;10399876;28;19928;-70
2022/06/10 09:18:34;;;;;;;;;;;;;;;-145.66;100.00;59599.19;10399762;28;19927;-69
2022/06/10 09:23:41;;;;;;;;;;;;;;;-145.66;100.00;59599.19;10398656;28;19927;-71
2022/06/10 09:28:43;;;;;;;;;;;;;;;-145.66;100.00;59599.19;10398674;28;19928;-70
2022/06/10 09:33:49;;;;;;;;;;;;;;;-145.66;100.00;59599.19;10414923;28;19928;-70
2022/06/10 09:39:02;;;;;;;;;;;;;;;-145.66;100.00;59599.19;10416541;28;19921;-73
2022/06/10 09:44:07;;;;;;;;;;;;;;;-145.66;100.00;59599.19;10397975;28;20284;-70
2022/06/10 09:49:11;;;;;;;;;;;;;;;-145.66;100.00;59599.19;10398272;28;20257;-72
2022/06/10 09:54:18;;;;;;;;;;;;;;;-145.66;100.00;59599.19;10416110;28;19928;-71
2022/06/10 09:59:39;;;;;;;;;;;;;;;-145.66;100.00;59599.19;10398469;28;19921;-71
2022/06/10 10:04:41;;;;;;;;;;;;;;;-145.66;100.00;59599.19;10415193;28;20284;-72
2022/06/10 10:09:58;;;;;;;;;;;;;;;-145.66;100.00;59599.19;10415811;28;19971;-70
2022/06/10 10:15:07;;;;;;;;;;;;;;;-145.66;100.00;59599.19;10415111;28;20257;-74
2022/06/10 10:20:13;;;;;;;;;;;;;;;-145.66;100.00;59599.19;10415639;28;19928;-71
2022/06/10 10:25:19;;;;;;;;;;;;;;;-145.66;100.00;59599.19;10381142;28;19925;-72
2022/06/10 10:30:34;;;;;;;;;;;;;;;-145.66;100.00;59599.19;10414405;28;19921;-72
2022/06/10 10:35:38;;;;;;;;;;;;;;;-145.66;100.00;59599.19;10405413;28;20336;-72
2022/06/10 10:40:47;;;;;;;;;;;;;;;-145.66;100.00;59599.19;10422684;28;20395;-71
2022/06/10 10:46:03;;;;;;;;;;;;;;;-145.66;100.00;59599.19;10415653;28;19947;-72
2022/06/10 10:51:12;;;;;;;;;;;;;;;-145.66;100.00;59599.19;10388938;28;19925;-72
2022/06/10 10:56:36;;;;;;;;;;;;;;;-145.66;100.00;59599.19;10416941;28;19921;-72
2022/06/10 11:01:43;;;;;;;;;;;;;;;-145.66;100.00;59599.19;10405040;28;19921;-74
2022/06/10 11:06:45;;;;;;;;;;;;;;;-145.66;100.00;59599.19;10405228;28;19932;-73
2022/06/10 11:12:02;;;;;;;;;;;;;;;-145.66;100.00;59599.19;10406139;28;20290;-72
2022/06/10 11:17:11;;;;;;;;;;;;;;;-145.66;100.00;59599.19;10421386;28;20059;-72
2022/06/10 11:22:22;;;;;;;;;;;;;;;-145.66;100.00;59599.19;10421600;28;19956;-72
2022/06/10 11:27:29;;;;;;;;;;;;;;;-145.66;100.00;59599.19;10421559;28;19921;-72
2022/06/10 11:32:34;;;;;;;;;;;;;;;-145.66;100.00;59599.19;10421430;28;19927;-73
2022/06/10 11:37:37;;;;;;;;;;;;;;;-145.66;100.00;59599.19;10386829;28;20376;-73
2022/06/10 11:42:44;;;;;;;;;;;;;;;-145.66;100.00;59599.19;10401983;28;19921;-72
2022/06/10 11:47:49;;;;;;;;;;;;;;;-145.66;100.00;59599.19;10419479;28;19921;-72
2022/06/10 11:52:54;;;;;;;;;;;;;;;-145.66;100.00;59599.19;10418686;28;20299;-72
2022/06/10 12:03:33;;;;;;;;;;;;;;;-145.66;100.00;59599.19;10419122;28;19921;-72
2022/06/10 12:08:44;;;;;;;;;;;;;;;-145.66;100.00;59599.19;10419924;28;19967;-72
2022/06/10 12:14:06;;;;;;;;;;;;;;;-145.66;100.00;59599.19;10419041;28;19931;-72
2022/06/10 12:19:22;;;;;;;;;;;;;;;-145.66;100.00;59599.19;10397047;28;19957;-72
2022/06/10 12:24:24;;;;;;;;;;;;;;;-145.66;100.00;59599.19;10417911;28;19921;-73
2022/06/10 12:29:41;;;;;;;;;;;;;;;-145.66;100.00;59599.19;10418448;28;20372;-72
2022/06/10 12:34:54;;;;;;;;;;;;;;;-145.66;100.00;59599.19;10417094;28;20292;-72
2022/06/10 12:40:02;;;;;;;;;;;;;;;-145.66;100.00;59599.19;10416685;28;19925;-72
2022/06/10 12:45:05;;;;;;;;;;;;;;;-145.66;100.00;59599.19;10416350;28;20300;-73
2022/06/10 12:50:16;;;;;;;;;;;;;;;-145.66;100.00;59599.19;10416990;28;20015;-72
2022/06/10 12:55:24;;;;;;;;;;;;;;;-145.66;100.00;59599.19;10415935;28;19921;-73
2022/06/10 13:00:26;;;;;;;;;;;;;;;-145.66;100.00;59599.19;10417288;28;19928;-72
2022/06/10 13:05:32;;;;;;;;;;;;;;;-145.66;100.00;59599.19;10416872;28;19928;-73
2022/06/10 13:10:44;;;;;;;;;;;;;;;-145.66;100.00;59599.19;10416420;28;19928;-72
2022/06/10 13:15:46;;;;;;;;;;;;;;;-145.66;100.00;59599.19;10415375;28;19998;-72
2022/06/10 13:20:49;;;;;;;;;;;;;;;-145.66;100.00;59599.19;10417084;28;19975;-72
2022/06/10 13:26:03;;;;;;;;;;;;;;;-145.66;100.00;59599.19;10415706;28;19921;-73
2022/06/10 13:31:12;;;;;;;;;;;;;;;-145.66;100.00;59599.19;10416873;28;19927;-73
2022/06/10 13:36:15;;;;;;;;;;;;;;;-145.66;100.00;59599.19;10415327;28;19921;-74
2022/06/10 13:46:45;;;;;;;;;;;;;;;-145.66;100.00;59599.19;10416573;28;19971;-73
2022/06/10 13:51:52;;;;;;;;;;;;;;;-145.66;100.00;59599.19;10415074;28;19964;-73
2022/06/10 13:56:56;;;;;;;;;;;;;;;-145.66;100.00;59599.19;10415696;28;19928;-72
2022/06/10 14:02:00;;;;;;;;;;;;;;;-145.66;100.00;59599.19;10415302;28;19995;-72
2022/06/10 14:07:04;;;;;;;;;;;;;;;-145.66;100.00;59599.19;10419896;28;19921;-72
2022/06/10 14:12:06;;;;;;;;;;;;;;;-145.66;100.00;59599.19;10429513;28;19928;-72
2022/06/10 14:17:09;;;;;;;;;;;;;;;-145.66;100.00;59599.19;10429273;28;19963;-72
2022/06/10 14:22:14;;;;;;;;;;;;;;;-145.66;100.00;59599.19;10427476;28;20035;-72
2022/06/10 14:27:18;;;;;;;;;;;;;;;-145.66;100.00;59599.19;10427759;28;20139;-73
2022/06/10 14:32:27;;;;;;;;;;;;;;;-145.66;100.00;59599.19;10427941;28;19921;-72
2022/06/10 14:37:33;;;;;;;;;;;;;;;-145.66;100.00;59599.19;10430342;28;19953;-73
2022/06/10 14:42:37;;;;;;;;;;;;;;;-145.66;100.00;59599.19;10426879;28;20272;-72
2022/06/10 14:47:58;;;;;;;;;;;;;;;-145.66;100.00;59599.19;10426902;28;20364;-72
2022/06/10 14:53:00;;;;;;;;;;;;;;;-145.66;100.00;59599.19;10428137;28;19921;-72
2022/06/10 14:58:04;;;;;;;;;;;;;;;-145.66;100.00;59599.19;10427990;28;19921;-72
2022/06/10 15:03:25;;;;;;;;;;;;;;;-145.66;100.00;59599.19;10427227;28;19921;-72
2022/06/10 15:08:28;;;;;;;;;;;;;;;-145.66;100.00;59599.19;10427326;28;20007;-72
2022/06/10 15:13:32;;;;;;;;;;;;;;;-145.66;100.00;59599.19;10427205;28;19921;-72
2022/06/10 15:18:34;;;;;;;;;;;;;;;-145.66;100.00;59599.19;10423896;28;20356;-72
2022/06/10 15:23:36;;;;;;;;;;;;;;;-145.66;100.00;59599.19;10421550;28;19921;-72
2022/06/10 15:28:39;;;;;;;;;;;;;;;-145.66;100.00;59599.19;10421447;28;20016;-72
2022/06/10 15:33:41;;;;;;;;;;;;;;;-145.66;100.00;59599.19;10420068;28;19928;-72
2022/06/10 15:44:21;;;;;;;;;;;;;;;-145.66;100.00;59599.19;10419298;28;19921;-71
2022/06/10 15:49:24;;;;;;;;;;;;;;;-145.66;100.00;59599.19;10420127;28;19975;-72
2022/06/10 15:54:30;;;;;;;;;;;;;;;-145.66;100.00;59599.19;10420601;28;19921;-72
2022/06/10 15:59:33;;;;;;;;;;;;;;;-145.66;100.00;59599.19;10400049;28;20372;-72
2022/06/10 16:04:36;;;;;;;;;;;;;;;-145.66;100.00;59599.19;10400699;28;20402;-65
2022/06/10 16:09:38;;;;;;;;;;;;;;;-145.66;100.00;59599.19;10411212;28;19979;-69
2022/06/10 16:14:40;;;;;;;;;;;;;;;-145.66;100.00;59599.19;10401010;28;19928;-70
2022/06/10 16:19:43;;;;;;;;;;;;;;;-145.66;100.00;59599.19;10403351;28;19928;-71
2022/06/10 16:24:45;;;;;;;;;;;;;;;-145.66;100.00;59599.19;10418654;28;20283;-69
2022/06/10 16:29:50;;;;;;;;;;;;;;;-145.66;100.00;59599.19;10415649;28;19925;-70
2022/06/10 16:34:53;;;;;;;;;;;;;;;-145.66;100.00;59599.19;10418247;28;20292;-71
2022/06/10 16:39:55;;;;;;;;;;;;;;;-145.66;100.00;59599.19;10395046;28;19927;-69
2022/06/10 16:44:57;;;;;;;;;;;;;;;-145.66;100.00;59599.19;10349397;28;19928;-69
2022/06/10 16:49:59;;;;;;;;;;;;;;;-145.66;100.00;59599.19;10335708;28;19922;-70
2022/06/10 16:55:02;;;;;;;;;;;;;;;-145.66;100.00;59599.19;10337735;28;19929;-70
2022/06/10 17:00:06;;;;;;;;;;;;;;;-145.66;100.00;59599.19;10353733;28;19922;-69
2022/06/10 17:05:12;;;;;;;;;;;;;;;-145.66;100.00;59599.19;10359486;28;19926;-70
2022/06/10 17:10:14;;;;;;;;;;;;;;;-145.66;100.00;59599.19;10358745;28;20374;-69
2022/06/10 17:15:19;;;;;;;;;;;;;;;-145.66;100.00;59599.19;10375797;28;19928;-70
2022/06/10 17:20:23;;;;;;;;;;;;;;;-145.66;100.00;59599.19;10376411;28;19925;-69
2022/06/10 17:25:26;;;;;;;;;;;;;;;-145.66;100.00;59599.19;10358286;28;19948;-71
2022/06/10 17:30:31;;;;;;;;;;;;;;;-145.66;100.00;59599.19;10358841;28;19932;-70
2022/06/10 17:35:33;;;;;;;;;;;;;;;-145.66;100.00;59599.19;10358625;28;19921;-69
2022/06/10 17:40:35;;;;;;;;;;;;;;;-145.66;100.00;59599.19;10375018;28;19921;-70
2022/06/10 17:45:37;;;;;;;;;;;;;;;-145.66;100.00;59599.19;10408823;28;19927;-69
2022/06/10 17:50:40;;;;;;;;;;;;;;;-145.66;100.00;59599.19;10416264;28;19921;-70
2022/06/10 17:55:43;;;;;;;;;;;;;;;-145.66;100.00;59599.19;10415155;28;19928;-69
2022/06/10 18:00:46;;;;;;;;;;;;;;;-145.66;100.00;59599.19;10410895;28;19927;-67
2022/06/10 18:05:53;;;;;;;;;;;;;;;-145.66;100.00;59599.19;10396451;28;20399;-67
2022/06/10 18:10:56;;;;;;;;;;;;;;;-145.66;100.00;59599.19;10374786;28;20312;-67
2022/06/10 18:15:58;;;;;;;;;;;;;;;-145.66;100.00;59599.19;10373965;28;19925;-67
2022/06/10 18:21:01;;;;;;;;;;;;;;;-145.66;100.00;59599.19;10373104;28;20415;-67
2022/06/10 18:26:22;;;;;;;;;;;;;;;-145.66;100.00;59599.19;10381696;28;19921;-67
2022/06/10 18:31:26;;;;;;;;;;;;;;;-145.66;100.00;59599.19;10391212;28;19921;-67
2022/06/10 18:36:28;;;;;;;;;;;;;;;-145.66;100.00;59599.19;10374767;28;19925;-67
2022/06/10 18:41:30;;;;;;;;;;;;;;;-145.66;100.00;59599.19;10377451;28;20346;-67
2022/06/10 18:46:33;;;;;;;;;;;;;;;-145.66;100.00;59599.19;10345400;28;19937;-67
2022/06/10 18:51:37;;;;;;;;;;;;;;;-145.66;100.00;59599.19;10374523;28;19921;-67
2022/06/10 18:56:44;;;;;;;;;;;;;;;-145.66;100.00;59599.19;10391234;23;20365;-67
2022/06/10 19:01:47;;;;;;;;;;;;;;;-145.66;100.00;59599.19;10435709;28;19921;-68
2022/06/10 19:06:49;;;;;;;;;;;;;;;-145.66;100.00;59599.19;10437934;28;19928;-68
2022/06/10 19:11:53;;;;;;;;;;;;;;;-145.66;100.00;59599.19;10437982;28;19920;-68
2022/06/10 19:16:57;;;;;;;;;;;;;;;-145.66;100.00;59599.19;10422079;28;19921;-68
2022/06/10 19:22:01;;;;;;;;;;;;;;;-145.66;100.00;59599.19;10437953;28;19931;-68
2022/06/10 19:27:03;;;;;;;;;;;;;;;-145.66;100.00;59599.19;10441168;28;20016;-68
2022/06/10 19:32:06;;;;;;;;;;;;;;;-145.66;100.00;59599.19;10420329;28;19928;-68
2022/06/10 19:37:28;;;;;;;;;;;;;;;-145.66;100.00;59599.19;10419504;28;19928;-68
2022/06/10 19:42:32;;;;;;;;;;;;;;;-145.66;100.00;59599.19;10421040;28;19921;-68
2022/06/10 19:47:38;;;;;;;;;;;;;;;-145.66;100.00;59599.19;10422382;28;19928;-68
2022/06/10 19:52:41;;;;;;;;;;;;;;;-145.66;100.00;59599.19;10451450;28;19921;-67
2022/06/10 19:57:43;;;;;;;;;;;;;;;-145.66;100.00;59599.19;10469322;28;19920;-68
2022/06/10 20:02:46;;;;;;;;;;;;;;;-145.66;100.00;59599.19;10462012;28;20283;-67
2022/06/10 20:07:48;;;;;;;;;;;;;;;-145.66;100.00;59599.19;10461708;28;19920;-67
2022/06/10 20:12:51;;;;;;;;;;;;;;;-145.66;100.00;59599.19;10501976;28;20371;-67
2022/06/10 20:17:53;;;;;;;;;;;;;;;-145.66;100.00;59599.19;10489959;28;19927;-67
2022/06/10 20:22:56;;;;;;;;;;;;;;;-145.66;100.00;59599.19;10461309;28;20283;-67
2022/06/10 20:27:58;;;;;;;;;;;;;;;-145.66;100.00;59599.19;10442978;28;19921;-67
2022/06/10 20:33:02;;;;;;;;;;;;;;;-145.66;100.00;59599.19;10459821;28;20359;-67
2022/06/10 20:38:06;;;;;;;;;;;;;;;-145.66;100.00;59599.19;10443665;28;19921;-68
2022/06/10 20:43:08;;;;;;;;;;;;;;;-145.66;100.00;59599.19;10443511;28;19927;-67
2022/06/10 20:48:17;;;;;;;;;;;;;;;-145.66;100.00;59599.19;10460220;28;20375;-68
2022/06/10 20:53:20;;;;;;;;;;;;;;;-145.66;100.00;59599.19;10442036;28;19931;-68
2022/06/10 20:58:29;;;;;;;;;;;;;;;-145.66;100.00;59599.19;10459316;28;19921;-67
2022/06/10 21:03:35;;;;;;;;;;;;;;;-145.66;100.00;59599.19;10490099;28;20449;-67
2022/06/10 21:08:37;;;;;;;;;;;;;;;-145.66;100.00;59599.19;10482679;28;19920;-67
2022/06/10 21:13:39;;;;;;;;;;;;;;;-145.66;100.00;59599.19;10500343;28;19924;-67
2022/06/10 21:18:42;;;;;;;;;;;;;;;-145.66;100.00;59599.19;10463988;28;19935;-67
2022/06/10 21:23:45;;;;;;;;;;;;;;;-145.66;100.00;59599.19;10473155;28;20298;-67
2022/06/10 21:28:47;;;;;;;;;;;;;;;-145.66;100.00;59599.19;10499023;28;19920;-67
2022/06/10 21:33:52;;;;;;;;;;;;;;;-145.66;100.00;59599.19;10499488;28;19930;-67
2022/06/10 21:38:55;;;;;;;;;;;;;;;-145.66;100.00;59599.19;10481475;28;19921;-67
2022/06/10 21:44:13;;;;;;;;;;;;;;;-145.66;100.00;59599.19;10479709;28;19920;-68
2022/06/10 21:49:19;;;;;;;;;;;;;;;-145.66;100.00;59599.19;10498440;28;20317;-67
2022/06/10 21:54:22;;;;;;;;;;;;;;;-145.66;100.00;59599.19;10481218;28;19920;-67
2022/06/10 21:59:25;;;;;;;;;;;;;;;-145.66;100.00;59599.19;10457205;28;19921;-67
2022/06/10 22:04:35;;;;;;;;;;;;;;;-145.66;100.00;59599.19;10440816;28;19970;-67
2022/06/10 22:09:45;;;;;;;;;;;;;;;-145.66;100.00;59599.19;10468616;28;19920;-67
2022/06/10 22:14:47;;;;;;;;;;;;;;;-145.66;100.00;59599.19;10480784;28;19920;-67
2022/06/10 22:19:52;;;;;;;;;;;;;;;-145.66;100.00;59599.19;10497336;28;19925;-67
2022/06/10 22:24:56;;;;;;;;;;;;;;;-145.66;100.00;59599.19;10456772;28;19927;-67
2022/06/10 22:29:58;;;;;;;;;;;;;;;-145.66;100.00;59599.19;10462738;28;19921;-67
2022/06/10 22:35:00;;;;;;;;;;;;;;;-145.66;100.00;59599.19;10490952;28;19928;-67
2022/06/10 22:40:03;;;;;;;;;;;;;;;-145.66;100.00;59599.19;10493185;28;19929;-67
2022/06/10 22:45:05;;;;;;;;;;;;;;;-145.66;100.00;59599.19;10506020;28;19920;-67
2022/06/10 22:50:13;;;;;;;;;;;;;;;-145.66;100.00;59599.19;10505896;28;19920;-67
2022/06/10 22:55:20;;;;;;;;;;;;;;;-145.66;100.00;59599.19;10487022;28;19943;-67
2022/06/10 23:00:28;;;;;;;;;;;;;;;-145.66;100.00;59599.19;10498182;28;19936;-67
2022/06/10 23:10:52;;;;;;;;;;;;;;;-145.66;100.00;59599.19;10485817;28;20420;-67
2022/06/10 23:15:56;;;;;;;;;;;;;;;-145.66;100.00;59599.19;10503877;28;20370;-67
2022/06/10 23:20:58;;;;;;;;;;;;;;;-145.66;100.00;59599.19;10468145;28;19928;-67
2022/06/10 23:26:00;;;;;;;;;;;;;;;-145.66;100.00;59599.19;10486470;28;19924;-67
2022/06/10 23:31:10;;;;;;;;;;;;;;;-145.66;100.00;59599.19;10486625;28;20057;-67
2022/06/10 23:36:15;;;;;;;;;;;;;;;-145.66;100.00;59599.19;10470319;28;20000;-67
2022/06/10 23:41:18;;;;;;;;;;;;;;;-145.66;100.00;59599.19;10444639;28;19921;-67
2022/06/10 23:51:42;;;;;;;;;;;;;;;-145.66;100.00;59599.19;10462132;28;19928;-67
2022/06/10 23:56:45;;;;;;;;;;;;;;;-145.66;100.00;59599.19;10467524;28;20031;-67
